createdAt,value
2023-05-17T00:00:11.040Z,35.06
2023-05-17T00:01:11.076Z,35.03
2023-05-17T00:02:11.173Z,34.99
2023-05-17T00:03:11.279Z,35.01
2023-05-17T00:04:11.304Z,35.00
2023-05-17T00:05:11.367Z,34.99
2023-05-17T00:06:11.457Z,35.03
2023-05-17T00:07:11.444Z,35.02
2023-05-17T00:08:11.525Z,35.02
2023-05-17T00:09:11.533Z,35.02
2023-05-17T00:10:11.600Z,35.04
2023-05-17T00:11:11.662Z,35.05
2023-05-17T00:12:11.793Z,34.99
2023-05-17T00:13:11.785Z,35.02
2023-05-17T00:14:11.826Z,35.01
2023-05-17T00:15:11.904Z,34.98
2023-05-17T00:16:11.975Z,34.95
2023-05-17T00:17:12.060Z,35.00
2023-05-17T00:18:12.156Z,34.97
2023-05-17T00:19:12.246Z,34.96
2023-05-17T00:20:12.166Z,34.94
2023-05-17T00:21:12.359Z,34.95
2023-05-17T00:22:12.234Z,34.98
2023-05-17T00:23:12.263Z,34.97
2023-05-17T00:24:12.240Z,34.98
2023-05-17T00:25:12.260Z,34.95
2023-05-17T00:26:12.256Z,34.97
2023-05-17T00:27:12.280Z,35.00
2023-05-17T00:28:12.294Z,34.95
2023-05-17T00:29:12.300Z,34.97
2023-05-17T00:30:12.297Z,35.00
2023-05-17T00:31:12.327Z,35.00
2023-05-17T00:32:12.342Z,34.96
2023-05-17T00:33:12.347Z,34.95
2023-05-17T00:34:12.339Z,34.93
2023-05-17T00:35:12.397Z,34.94
2023-05-17T00:36:12.353Z,34.91
2023-05-17T00:37:12.425Z,34.91
2023-05-17T00:38:12.421Z,34.96
2023-05-17T00:39:12.395Z,34.95
2023-05-17T00:40:12.398Z,34.93
2023-05-17T00:41:12.412Z,34.89
2023-05-17T00:42:12.431Z,34.90
2023-05-17T00:43:12.451Z,34.89
2023-05-17T00:44:12.454Z,34.89
2023-05-17T00:45:12.469Z,34.90
2023-05-17T00:46:12.482Z,34.90
2023-05-17T00:47:12.556Z,34.90
2023-05-17T00:48:12.784Z,34.89
2023-05-17T00:49:12.633Z,34.89
2023-05-17T00:50:12.689Z,34.89
2023-05-17T00:51:12.749Z,34.89
2023-05-17T00:52:12.810Z,34.89
2023-05-17T00:53:12.871Z,34.89
2023-05-17T00:54:12.940Z,34.86
2023-05-17T00:55:13.092Z,34.86
2023-05-17T00:56:13.183Z,34.90
2023-05-17T00:57:13.177Z,34.85
2023-05-17T00:58:13.204Z,34.82
2023-05-17T00:59:13.207Z,34.86
2023-05-17T01:00:13.221Z,34.83
2023-05-17T01:01:13.232Z,34.83
2023-05-17T01:02:13.262Z,34.82
2023-05-17T01:03:13.395Z,34.80
2023-05-17T01:04:13.551Z,34.85
2023-05-17T01:05:13.284Z,34.83
2023-05-17T01:06:13.318Z,34.86
2023-05-17T01:07:13.345Z,34.81
2023-05-17T01:08:13.364Z,34.78
2023-05-17T01:09:13.532Z,34.80
2023-05-17T01:10:13.562Z,34.78
2023-05-17T01:11:13.572Z,34.78
2023-05-17T01:12:13.558Z,34.79
2023-05-17T01:13:13.627Z,34.81
2023-05-17T01:14:13.609Z,34.86
2023-05-17T01:15:13.626Z,34.78
2023-05-17T01:16:13.695Z,34.81
2023-05-17T01:17:13.736Z,34.78
2023-05-17T01:18:13.838Z,34.75
2023-05-17T01:19:13.882Z,34.76
2023-05-17T01:20:13.954Z,34.78
2023-05-17T01:21:13.908Z,34.73
2023-05-17T01:22:13.982Z,34.73
2023-05-17T01:23:14.063Z,34.73
2023-05-17T01:24:14.128Z,34.73
2023-05-17T01:25:14.193Z,34.75
2023-05-17T01:26:14.144Z,34.76
2023-05-17T01:27:14.192Z,34.75
2023-05-17T01:28:14.173Z,34.73
2023-05-17T01:29:14.196Z,34.70
2023-05-17T01:30:14.194Z,34.75
2023-05-17T01:31:14.208Z,34.73
2023-05-17T01:32:14.234Z,34.71
2023-05-17T01:33:14.329Z,34.70
2023-05-17T01:34:14.257Z,34.68
2023-05-17T01:35:14.257Z,34.70
2023-05-17T01:36:14.260Z,34.67
2023-05-17T01:37:14.290Z,34.70
2023-05-17T01:38:14.282Z,34.69
2023-05-17T01:39:14.317Z,34.67
2023-05-17T01:40:14.323Z,34.67
2023-05-17T01:41:14.343Z,34.64
2023-05-17T01:42:14.377Z,34.64
2023-05-17T01:43:14.347Z,34.60
2023-05-17T01:44:14.358Z,34.63
2023-05-17T01:45:14.392Z,34.66
2023-05-17T01:46:14.401Z,34.63
2023-05-17T01:47:14.419Z,34.63
2023-05-17T01:48:14.462Z,34.61
2023-05-17T01:49:14.439Z,34.59
2023-05-17T01:50:14.478Z,34.60
2023-05-17T01:51:14.547Z,34.62
2023-05-17T01:52:14.483Z,34.61
2023-05-17T01:53:14.514Z,34.58
2023-05-17T01:54:14.558Z,34.55
2023-05-17T01:55:14.613Z,34.60
2023-05-17T01:56:14.685Z,34.57
2023-05-17T01:57:14.815Z,34.58
2023-05-17T01:58:14.809Z,34.55
2023-05-17T01:59:14.868Z,34.55
2023-05-17T02:00:14.945Z,34.49
2023-05-17T02:01:14.984Z,34.52
2023-05-17T02:02:15.052Z,34.58
2023-05-17T02:03:15.118Z,34.59
2023-05-17T02:04:15.221Z,34.53
2023-05-17T02:05:15.156Z,34.51
2023-05-17T02:06:15.158Z,34.47
2023-05-17T02:07:15.186Z,34.46
2023-05-17T02:08:15.344Z,34.46
2023-05-17T02:09:15.270Z,34.51
2023-05-17T02:10:15.262Z,34.55
2023-05-17T02:11:15.270Z,34.47
2023-05-17T02:12:15.280Z,34.47
2023-05-17T02:13:15.349Z,34.45
2023-05-17T02:14:15.293Z,34.47
2023-05-17T02:15:15.355Z,34.44
2023-05-17T02:16:15.438Z,34.40
2023-05-17T02:17:15.551Z,34.46
2023-05-17T02:18:15.734Z,34.48
2023-05-17T02:19:15.700Z,34.45
2023-05-17T02:20:15.779Z,34.45
2023-05-17T02:21:15.846Z,34.45
2023-05-17T02:22:15.941Z,34.41
2023-05-17T02:23:15.998Z,34.40
2023-05-17T02:24:16.087Z,34.43
2023-05-17T02:25:16.158Z,34.41
2023-05-17T02:26:16.310Z,34.42
2023-05-17T02:27:16.325Z,34.46
2023-05-17T02:28:16.392Z,34.43
2023-05-17T02:29:16.490Z,34.41
2023-05-17T02:30:17.996Z,34.42
2023-05-17T02:31:16.478Z,34.44
2023-05-17T02:32:16.510Z,34.40
2023-05-17T02:33:16.671Z,34.45
2023-05-17T02:34:16.534Z,34.41
2023-05-17T02:35:16.566Z,34.37
2023-05-17T02:36:16.575Z,34.37
2023-05-17T02:37:16.600Z,34.40
2023-05-17T02:38:16.619Z,34.38
2023-05-17T02:39:16.680Z,34.37
2023-05-17T02:40:16.676Z,34.36
2023-05-17T02:41:16.721Z,34.33
2023-05-17T02:42:16.804Z,34.35
2023-05-17T02:43:16.863Z,34.33
2023-05-17T02:44:16.922Z,34.34
2023-05-17T02:45:17.068Z,34.29
2023-05-17T02:46:17.054Z,34.31
2023-05-17T02:47:17.160Z,34.30
2023-05-17T02:48:17.237Z,34.27
2023-05-17T02:49:17.242Z,34.31
2023-05-17T02:50:17.305Z,34.31
2023-05-17T02:51:17.379Z,34.31
2023-05-17T02:52:17.437Z,34.32
2023-05-17T02:53:17.494Z,34.29
2023-05-17T02:54:17.550Z,34.24
2023-05-17T02:55:17.620Z,34.23
2023-05-17T02:56:17.708Z,34.27
2023-05-17T02:57:17.765Z,34.26
2023-05-17T02:58:17.811Z,34.22
2023-05-17T02:59:17.836Z,34.25
2023-05-17T03:00:17.923Z,34.24
2023-05-17T03:01:18.033Z,34.20
2023-05-17T03:02:18.032Z,34.26
2023-05-17T03:03:18.183Z,34.24
2023-05-17T03:04:18.020Z,34.17
2023-05-17T03:05:18.015Z,34.18
2023-05-17T03:06:18.080Z,34.18
2023-05-17T03:07:18.115Z,34.13
2023-05-17T03:08:18.126Z,34.19
2023-05-17T03:09:18.160Z,34.20
2023-05-17T03:10:18.206Z,34.16
2023-05-17T03:11:18.243Z,34.20
2023-05-17T03:12:18.272Z,34.18
2023-05-17T03:13:18.303Z,34.23
2023-05-17T03:14:18.362Z,34.18
2023-05-17T03:15:18.364Z,34.15
2023-05-17T03:16:18.410Z,34.16
2023-05-17T03:17:18.503Z,34.14
2023-05-17T03:18:18.554Z,34.15
2023-05-17T03:19:18.577Z,34.13
2023-05-17T03:20:18.503Z,34.16
2023-05-17T03:21:18.557Z,34.19
2023-05-17T03:22:18.552Z,34.16
2023-05-17T03:23:18.618Z,34.13
2023-05-17T03:24:18.607Z,34.14
2023-05-17T03:25:18.626Z,34.14
2023-05-17T03:26:18.617Z,34.08
2023-05-17T03:27:18.676Z,34.11
2023-05-17T03:28:18.658Z,34.12
2023-05-17T03:29:18.698Z,34.09
2023-05-17T03:30:18.759Z,34.03
2023-05-17T03:31:18.773Z,34.06
2023-05-17T03:32:18.806Z,34.11
2023-05-17T03:33:18.995Z,34.07
2023-05-17T03:34:18.843Z,34.07
2023-05-17T03:35:18.867Z,34.10
2023-05-17T03:36:18.879Z,34.08
2023-05-17T03:37:18.924Z,34.08
2023-05-17T03:38:18.923Z,34.02
2023-05-17T03:39:18.946Z,34.03
2023-05-17T03:40:18.978Z,34.00
2023-05-17T03:41:18.992Z,34.01
2023-05-17T03:42:19.022Z,33.98
2023-05-17T03:43:19.020Z,33.94
2023-05-17T03:44:19.056Z,33.99
2023-05-17T03:45:19.071Z,34.01
2023-05-17T03:46:19.100Z,33.99
2023-05-17T03:47:19.131Z,34.00
2023-05-17T03:48:19.201Z,34.01
2023-05-17T03:49:19.285Z,33.94
2023-05-17T03:50:19.194Z,33.97
2023-05-17T03:51:19.215Z,34.00
2023-05-17T03:52:19.254Z,34.01
2023-05-17T03:53:19.270Z,33.97
2023-05-17T03:54:19.299Z,33.92
2023-05-17T03:55:19.318Z,33.95
2023-05-17T03:56:19.330Z,33.86
2023-05-17T03:57:19.351Z,33.87
2023-05-17T03:58:19.402Z,33.92
2023-05-17T03:59:19.388Z,33.91
2023-05-17T04:00:19.397Z,33.95
2023-05-17T04:01:19.424Z,33.94
2023-05-17T04:02:19.461Z,33.90
2023-05-17T04:03:20.315Z,33.86
2023-05-17T04:04:19.565Z,33.92
2023-05-17T04:05:19.704Z,33.88
2023-05-17T04:06:19.503Z,33.87
2023-05-17T04:07:19.555Z,33.85
2023-05-17T04:08:19.563Z,33.88
2023-05-17T04:09:19.578Z,33.80
2023-05-17T04:10:19.617Z,33.84
2023-05-17T04:11:19.620Z,33.81
2023-05-17T04:12:19.622Z,33.81
2023-05-17T04:13:19.668Z,33.81
2023-05-17T04:14:19.674Z,33.80
2023-05-17T04:15:20.779Z,33.78
2023-05-17T04:16:19.689Z,33.79
2023-05-17T04:17:19.714Z,33.83
2023-05-17T04:18:19.858Z,33.82
2023-05-17T04:19:19.829Z,33.79
2023-05-17T04:20:19.755Z,33.76
2023-05-17T04:21:19.838Z,33.77
2023-05-17T04:22:19.789Z,33.78
2023-05-17T04:23:19.794Z,33.76
2023-05-17T04:24:19.809Z,33.77
2023-05-17T04:25:19.813Z,33.74
2023-05-17T04:26:19.840Z,33.69
2023-05-17T04:27:19.852Z,33.72
2023-05-17T04:28:19.832Z,33.70
2023-05-17T04:29:19.882Z,33.67
2023-05-17T04:30:19.845Z,33.68
2023-05-17T04:31:19.873Z,33.61
2023-05-17T04:32:19.898Z,33.65
2023-05-17T04:33:20.012Z,33.61
2023-05-17T04:34:19.896Z,33.67
2023-05-17T04:35:19.931Z,33.62
2023-05-17T04:36:19.931Z,33.71
2023-05-17T04:37:20.030Z,33.65
2023-05-17T04:38:19.970Z,33.68
2023-05-17T04:39:19.970Z,33.69
2023-05-17T04:40:20.005Z,33.68
2023-05-17T04:41:20.024Z,33.69
2023-05-17T04:42:20.027Z,33.73
2023-05-17T04:43:20.009Z,33.75
2023-05-17T04:44:20.045Z,33.79
2023-05-17T04:45:20.049Z,33.76
2023-05-17T04:46:20.046Z,33.77
2023-05-17T04:47:20.102Z,33.83
2023-05-17T04:48:20.202Z,33.82
2023-05-17T04:49:20.091Z,33.86
2023-05-17T04:50:20.093Z,33.90
2023-05-17T04:51:20.106Z,33.85
2023-05-17T04:52:20.274Z,33.84
2023-05-17T04:53:20.221Z,33.95
2023-05-17T04:54:20.168Z,34.06
2023-05-17T04:55:20.162Z,34.05
2023-05-17T04:56:20.178Z,34.00
2023-05-17T04:57:20.180Z,33.98
2023-05-17T04:58:20.197Z,33.99
2023-05-17T04:59:20.215Z,34.06
2023-05-17T05:00:20.263Z,34.10
2023-05-17T05:01:20.236Z,34.20
2023-05-17T05:02:20.266Z,34.20
2023-05-17T05:03:20.288Z,34.19
2023-05-17T05:04:20.342Z,34.22
2023-05-17T05:05:20.305Z,34.19
2023-05-17T05:06:20.301Z,34.18
2023-05-17T05:07:20.311Z,34.15
2023-05-17T05:08:20.345Z,34.18
2023-05-17T05:09:20.346Z,34.23
2023-05-17T05:10:20.356Z,34.20
2023-05-17T05:11:20.365Z,34.22
2023-05-17T05:12:20.392Z,34.22
2023-05-17T05:13:20.399Z,34.24
2023-05-17T05:14:20.404Z,34.24
2023-05-17T05:15:20.437Z,34.24
2023-05-17T05:16:20.471Z,34.24
2023-05-17T05:17:20.504Z,34.28
2023-05-17T05:18:20.573Z,34.26
2023-05-17T05:19:20.610Z,34.26
2023-05-17T05:20:20.569Z,34.26
2023-05-17T05:21:20.599Z,34.27
2023-05-17T05:22:20.617Z,34.24
2023-05-17T05:23:20.648Z,34.23
2023-05-17T05:24:20.739Z,34.23
2023-05-17T05:25:20.773Z,34.25
2023-05-17T05:26:20.730Z,34.25
2023-05-17T05:27:20.749Z,34.25
2023-05-17T05:28:20.835Z,34.25
2023-05-17T05:29:20.817Z,34.26
2023-05-17T05:30:20.854Z,34.24
2023-05-17T05:31:20.892Z,34.26
2023-05-17T05:32:20.908Z,34.27
2023-05-17T05:33:21.001Z,34.28
2023-05-17T05:34:20.932Z,34.42
2023-05-17T05:35:20.989Z,34.76
2023-05-17T05:36:20.962Z,35.59
2023-05-17T05:37:20.968Z,35.71
2023-05-17T05:38:20.990Z,35.91
2023-05-17T05:39:20.981Z,36.58
2023-05-17T05:40:20.990Z,37.26
2023-05-17T05:41:21.067Z,37.79
2023-05-17T05:42:21.039Z,38.07
2023-05-17T05:43:21.033Z,38.16
2023-05-17T05:44:21.077Z,38.03
2023-05-17T05:45:21.041Z,38.03
2023-05-17T05:46:21.071Z,38.07
2023-05-17T05:47:21.366Z,38.14
2023-05-17T05:49:40.175Z,38.38
2023-05-17T05:50:40.170Z,38.52
2023-05-17T05:51:40.141Z,38.58
2023-05-17T05:52:40.136Z,38.64
2023-05-17T05:53:40.115Z,38.68
2023-05-17T05:54:40.103Z,38.67
2023-05-17T05:55:40.114Z,38.70
2023-05-17T05:56:40.086Z,38.85
2023-05-17T05:57:40.085Z,39.21
2023-05-17T05:58:40.084Z,39.21
2023-05-17T05:59:40.091Z,39.08
2023-05-17T06:00:40.117Z,39.07
2023-05-17T06:01:40.050Z,39.15
2023-05-17T06:02:40.065Z,39.22
2023-05-17T06:03:40.040Z,39.34
2023-05-17T06:04:45.267Z,39.31
2023-05-17T06:05:41.106Z,39.18
2023-05-17T06:06:40.121Z,39.23
2023-05-17T06:07:39.988Z,39.27
2023-05-17T06:08:40.120Z,39.31
2023-05-17T06:09:39.958Z,39.51
2023-05-17T06:10:39.936Z,39.47
2023-05-17T06:11:39.945Z,39.65
2023-05-17T06:12:40.051Z,39.60
2023-05-17T06:13:39.949Z,39.85
2023-05-17T06:14:39.925Z,39.77
2023-05-17T06:15:39.905Z,39.97
2023-05-17T06:16:40.034Z,39.99
2023-05-17T06:17:39.999Z,39.95
2023-05-17T06:18:39.990Z,40.13
2023-05-17T06:19:40.001Z,40.03
2023-05-17T06:20:39.874Z,40.12
2023-05-17T06:21:39.857Z,40.11
2023-05-17T06:22:39.857Z,40.21
2023-05-17T06:23:39.888Z,40.16
2023-05-17T06:24:39.827Z,40.13
2023-05-17T06:25:39.797Z,40.13
2023-05-17T06:26:39.809Z,40.15
2023-05-17T06:27:39.792Z,40.11
2023-05-17T06:28:39.845Z,40.13
2023-05-17T06:29:39.769Z,40.12
2023-05-17T06:30:39.740Z,40.06
2023-05-17T06:31:39.726Z,40.09
2023-05-17T06:32:39.756Z,40.07
2023-05-17T06:33:39.749Z,40.11
2023-05-17T06:34:39.690Z,40.09
2023-05-17T06:35:51.707Z,40.06
2023-05-17T06:36:40.909Z,40.05
2023-05-17T06:37:39.664Z,40.01
2023-05-17T06:38:39.628Z,39.92
2023-05-17T06:39:40.085Z,39.88
2023-05-17T06:40:39.594Z,40.14
2023-05-17T06:41:39.583Z,40.30
2023-05-17T06:42:39.612Z,40.23
2023-05-17T06:43:39.545Z,40.40
2023-05-17T06:44:39.750Z,40.20
2023-05-17T06:45:39.503Z,40.01
2023-05-17T06:46:39.485Z,39.81
2023-05-17T06:47:39.547Z,39.72
2023-05-17T06:48:39.592Z,39.76
2023-05-17T06:49:39.447Z,39.70
2023-05-17T06:50:40.364Z,39.75
2023-05-17T06:51:39.486Z,39.73
2023-05-17T06:52:39.428Z,39.57
2023-05-17T06:53:39.407Z,39.58
2023-05-17T06:54:39.393Z,39.61
2023-05-17T06:55:39.385Z,39.56
2023-05-17T06:56:39.348Z,39.52
2023-05-17T06:57:39.374Z,39.45
2023-05-17T06:58:39.325Z,39.40
2023-05-17T06:59:39.302Z,39.26
2023-05-17T07:00:39.372Z,39.16
2023-05-17T07:01:39.318Z,39.03
2023-05-17T07:02:39.328Z,38.97
2023-05-17T07:03:39.377Z,38.92
2023-05-17T07:04:39.332Z,38.88
2023-05-17T07:05:39.220Z,38.82
2023-05-17T07:06:39.247Z,38.89
2023-05-17T07:07:39.198Z,38.81
2023-05-17T07:08:39.178Z,38.94
2023-05-17T07:09:39.216Z,38.99
2023-05-17T07:10:39.407Z,38.93
2023-05-17T07:11:39.158Z,38.83
2023-05-17T07:12:39.149Z,38.91
2023-05-17T07:13:39.189Z,38.77
2023-05-17T07:14:39.104Z,38.67
2023-05-17T07:15:39.109Z,38.61
2023-05-17T07:16:39.157Z,38.59
2023-05-17T07:17:39.164Z,38.50
2023-05-17T07:18:39.919Z,38.47
2023-05-17T07:19:39.151Z,38.46
2023-05-17T07:20:39.142Z,38.25
2023-05-17T07:21:39.051Z,38.40
2023-05-17T07:22:39.024Z,38.40
2023-05-17T07:23:39.031Z,38.36
2023-05-17T07:24:38.994Z,38.40
2023-05-17T07:25:39.911Z,38.36
2023-05-17T07:26:39.045Z,38.34
2023-05-17T07:27:39.169Z,38.23
2023-05-17T07:28:39.043Z,38.20
2023-05-17T07:29:39.064Z,38.18
2023-05-17T07:30:38.900Z,38.15
2023-05-17T07:31:38.903Z,38.25
2023-05-17T07:32:38.983Z,38.14
2023-05-17T07:33:38.864Z,38.28
2023-05-17T07:34:38.884Z,38.35
2023-05-17T07:35:38.845Z,38.43
2023-05-17T07:36:38.925Z,38.58
2023-05-17T07:37:39.492Z,39.03
2023-05-17T07:38:38.873Z,39.32
2023-05-17T07:39:38.773Z,39.74
2023-05-17T07:40:38.745Z,39.14
2023-05-17T07:41:38.739Z,38.60
2023-05-17T07:42:38.711Z,38.44
2023-05-17T07:43:38.746Z,38.54
2023-05-17T07:44:38.681Z,38.23
2023-05-17T07:45:38.693Z,38.06
2023-05-17T07:46:38.706Z,38.08
2023-05-17T07:47:38.847Z,37.86
2023-05-17T07:48:38.794Z,37.89
2023-05-17T07:49:38.656Z,37.90
2023-05-17T07:50:38.634Z,37.94
2023-05-17T07:51:39.002Z,38.02
2023-05-17T07:52:38.560Z,38.07
2023-05-17T07:53:38.604Z,38.02
2023-05-17T07:54:38.532Z,38.05
2023-05-17T07:55:38.533Z,37.96
2023-05-17T07:56:38.529Z,37.81
2023-05-17T07:57:38.592Z,37.81
2023-05-17T07:58:38.668Z,37.81
2023-05-17T07:59:38.711Z,37.84
2023-05-17T08:00:38.752Z,37.81
2023-05-17T08:01:38.849Z,37.82
2023-05-17T08:02:38.944Z,37.65
2023-05-17T08:03:38.915Z,37.65
2023-05-17T08:04:38.970Z,37.65
2023-05-17T08:05:38.945Z,37.54
2023-05-17T08:06:38.930Z,37.56
2023-05-17T08:07:38.963Z,37.54
2023-05-17T08:08:39.027Z,37.33
2023-05-17T08:09:39.199Z,37.35
2023-05-17T08:10:39.096Z,37.42
2023-05-17T08:11:39.139Z,37.32
2023-05-17T08:12:39.167Z,37.28
2023-05-17T08:13:40.931Z,37.18
2023-05-17T08:14:39.244Z,37.21
2023-05-17T08:15:39.310Z,37.25
2023-05-17T08:16:39.363Z,37.36
2023-05-17T08:17:39.468Z,37.40
2023-05-17T08:18:39.583Z,37.44
2023-05-17T08:19:39.549Z,37.36
2023-05-17T08:20:39.470Z,37.38
2023-05-17T08:21:39.296Z,37.31
2023-05-17T08:22:39.256Z,37.39
2023-05-17T08:23:39.287Z,37.28
2023-05-17T08:24:39.225Z,37.36
2023-05-17T08:25:39.223Z,37.34
2023-05-17T08:26:39.161Z,37.40
2023-05-17T08:27:39.166Z,37.36
2023-05-17T08:28:39.165Z,37.42
2023-05-17T08:29:39.753Z,38.09
2023-05-17T08:30:39.268Z,37.69
2023-05-17T08:31:39.448Z,37.65
2023-05-17T08:32:39.408Z,37.59
2023-05-17T08:33:39.422Z,37.50
2023-05-17T08:34:39.406Z,37.29
2023-05-17T08:35:39.420Z,36.41
2023-05-17T08:36:39.492Z,34.31
2023-05-17T08:37:39.458Z,33.78
2023-05-17T08:38:39.512Z,32.97
2023-05-17T08:39:39.426Z,34.04
2023-05-17T08:40:39.426Z,32.88
2023-05-17T08:41:39.400Z,32.84
2023-05-17T08:42:39.432Z,32.58
2023-05-17T08:43:39.476Z,31.89
2023-05-17T08:44:39.393Z,31.67
2023-05-17T08:45:39.389Z,31.58
2023-05-17T08:46:39.370Z,31.49
2023-05-17T08:47:39.485Z,31.87
2023-05-17T08:48:39.405Z,32.22
2023-05-17T08:49:39.952Z,32.86
2023-05-17T08:50:39.343Z,33.81
2023-05-17T08:51:39.348Z,34.37
2023-05-17T08:52:39.341Z,34.81
2023-05-17T08:53:40.020Z,35.77
2023-05-17T08:54:39.317Z,35.40
2023-05-17T08:55:39.543Z,35.22
2023-05-17T08:56:39.300Z,35.43
2023-05-17T08:57:40.908Z,35.48
2023-05-17T08:58:52.273Z,35.34
2023-05-17T08:59:40.291Z,35.30
2023-05-17T09:00:39.233Z,35.18
2023-05-17T09:01:39.290Z,35.05
2023-05-17T09:02:39.320Z,35.13
2023-05-17T09:03:39.386Z,35.29
2023-05-17T09:04:39.202Z,35.41
2023-05-17T09:05:39.442Z,35.50
2023-05-17T09:06:39.163Z,35.56
2023-05-17T09:07:39.177Z,35.63
2023-05-17T09:08:39.430Z,36.06
2023-05-17T09:09:39.147Z,35.98
2023-05-17T09:10:39.181Z,35.81
2023-05-17T09:11:39.205Z,35.81
2023-05-17T09:12:39.233Z,35.89
2023-05-17T09:13:39.539Z,35.98
2023-05-17T09:14:39.292Z,35.98
2023-05-17T09:15:39.300Z,35.97
2023-05-17T09:16:39.339Z,35.99
2023-05-17T09:17:39.397Z,36.03
2023-05-17T09:18:39.616Z,35.97
2023-05-17T09:19:39.468Z,35.90
2023-05-17T09:20:39.447Z,35.81
2023-05-17T09:21:40.458Z,35.88
2023-05-17T09:22:39.518Z,35.96
2023-05-17T09:23:39.485Z,35.80
2023-05-17T09:24:39.508Z,35.75
2023-05-17T09:25:39.486Z,35.83
2023-05-17T09:26:39.470Z,35.93
2023-05-17T09:27:39.453Z,35.81
2023-05-17T09:28:39.431Z,35.80
2023-05-17T09:29:39.495Z,35.76
2023-05-17T09:30:39.427Z,35.87
2023-05-17T09:31:39.395Z,35.73
2023-05-17T09:32:39.400Z,35.79
2023-05-17T09:33:39.873Z,35.76
2023-05-17T09:34:39.344Z,35.88
2023-05-17T09:35:39.312Z,35.93
2023-05-17T09:36:39.366Z,35.94
2023-05-17T09:37:39.975Z,36.00
2023-05-17T09:38:39.323Z,36.10
2023-05-17T09:39:39.270Z,36.26
2023-05-17T09:40:39.455Z,36.21
2023-05-17T09:41:39.241Z,35.44
2023-05-17T09:42:39.238Z,35.24
2023-05-17T09:43:39.242Z,35.90
2023-05-17T09:44:39.210Z,35.72
2023-05-17T09:45:39.510Z,35.77
2023-05-17T09:46:39.245Z,35.89
2023-05-17T09:47:40.992Z,35.65
2023-05-17T09:48:39.408Z,35.82
2023-05-17T09:49:39.242Z,36.01
2023-05-17T09:50:39.179Z,36.10
2023-05-17T09:51:39.979Z,36.04
2023-05-17T09:52:39.239Z,35.50
2023-05-17T09:53:39.369Z,35.65
2023-05-17T09:54:39.327Z,36.00
2023-05-17T09:55:39.438Z,35.43
2023-05-17T09:56:39.224Z,35.70
2023-05-17T09:57:39.316Z,35.94
2023-05-17T09:58:39.358Z,35.59
2023-05-17T09:59:39.269Z,35.75
2023-05-17T10:00:39.352Z,35.81
2023-05-17T10:01:39.406Z,35.98
2023-05-17T10:02:39.416Z,35.68
2023-05-17T10:03:39.509Z,35.36
2023-05-17T10:04:39.483Z,35.14
2023-05-17T10:05:39.476Z,34.94
2023-05-17T10:06:46.344Z,35.12
2023-05-17T10:07:40.376Z,35.00
2023-05-17T10:08:39.413Z,35.56
2023-05-17T10:09:39.620Z,35.44
2023-05-17T10:10:39.457Z,35.26
2023-05-17T10:11:39.505Z,35.12
2023-05-17T10:12:39.517Z,35.27
2023-05-17T10:13:39.595Z,35.12
2023-05-17T10:14:39.586Z,35.34
2023-05-17T10:15:39.651Z,35.46
2023-05-17T10:16:39.587Z,35.32
2023-05-17T10:17:39.767Z,35.33
2023-05-17T10:18:39.872Z,35.22
2023-05-17T10:19:39.927Z,35.85
2023-05-17T10:20:39.898Z,37.41
2023-05-17T10:21:39.956Z,37.63
2023-05-17T10:22:40.044Z,36.67
2023-05-17T10:23:40.083Z,36.70
2023-05-17T10:24:40.070Z,36.80
2023-05-17T10:25:40.316Z,36.38
2023-05-17T10:26:40.238Z,36.26
2023-05-17T10:27:40.209Z,35.84
2023-05-17T10:28:40.528Z,36.04
2023-05-17T10:29:40.301Z,36.47
2023-05-17T10:30:40.304Z,36.52
2023-05-17T10:31:40.369Z,36.98
2023-05-17T10:32:40.663Z,37.24
2023-05-17T10:33:41.571Z,36.94
2023-05-17T10:34:40.579Z,36.70
2023-05-17T10:35:41.194Z,36.79
2023-05-17T10:36:40.756Z,37.15
2023-05-17T10:37:40.788Z,37.54
2023-05-17T10:38:42.822Z,38.13
2023-05-17T10:39:40.837Z,38.57
2023-05-17T10:40:40.902Z,38.81
2023-05-17T10:41:40.983Z,39.64
2023-05-17T10:42:41.066Z,39.32
2023-05-17T10:43:41.140Z,38.82
2023-05-17T10:44:41.260Z,38.33
2023-05-17T10:45:41.303Z,38.36
2023-05-17T10:46:41.398Z,38.61
2023-05-17T10:47:41.560Z,39.12
2023-05-17T10:48:42.502Z,38.47
2023-05-17T10:49:41.623Z,38.12
2023-05-17T10:50:54.580Z,37.88
2023-05-17T10:51:42.560Z,38.04
2023-05-17T10:52:41.692Z,37.97
2023-05-17T10:53:41.650Z,37.89
2023-05-17T10:54:41.728Z,37.36
2023-05-17T10:55:41.994Z,38.05
2023-05-17T10:56:41.801Z,37.96
2023-05-17T10:57:49.862Z,37.88
2023-05-17T10:58:42.604Z,38.29
2023-05-17T10:59:41.602Z,38.01
2023-05-17T11:00:41.637Z,37.23
2023-05-17T11:01:42.591Z,37.96
2023-05-17T11:02:41.708Z,37.81
2023-05-17T11:03:41.844Z,37.16
2023-05-17T11:04:42.032Z,37.57
2023-05-17T11:05:41.957Z,37.59
2023-05-17T11:06:41.786Z,36.01
2023-05-17T11:07:41.613Z,35.19
2023-05-17T11:08:41.919Z,35.73
2023-05-17T11:09:41.719Z,36.43
2023-05-17T11:10:41.655Z,36.09
2023-05-17T11:11:41.910Z,35.85
2023-05-17T11:12:41.713Z,37.06
2023-05-17T11:13:41.977Z,37.56
2023-05-17T11:14:41.772Z,37.01
2023-05-17T11:15:41.850Z,37.25
2023-05-17T11:16:41.852Z,36.22
2023-05-17T11:17:41.925Z,36.41
2023-05-17T11:18:42.231Z,36.61
2023-05-17T11:19:42.275Z,36.17
2023-05-17T11:20:42.197Z,36.07
2023-05-17T11:21:42.123Z,37.03
2023-05-17T11:22:42.956Z,38.75
2023-05-17T11:23:42.225Z,39.67
2023-05-17T11:24:42.262Z,39.76
2023-05-17T11:25:42.367Z,39.01
2023-05-17T11:26:42.378Z,39.69
2023-05-17T11:27:42.962Z,39.79
2023-05-17T11:28:42.436Z,39.34
2023-05-17T11:29:42.450Z,39.07
2023-05-17T11:30:42.499Z,38.87
2023-05-17T11:31:42.541Z,39.12
2023-05-17T11:32:42.667Z,39.25
2023-05-17T11:33:42.763Z,39.31
2023-05-17T11:34:42.802Z,39.17
2023-05-17T11:35:42.802Z,39.13
2023-05-17T11:36:43.031Z,38.82
2023-05-17T11:37:42.894Z,38.62
2023-05-17T11:38:42.954Z,38.61
2023-05-17T11:39:43.233Z,38.46
2023-05-17T11:40:43.038Z,38.32
2023-05-17T11:41:43.048Z,38.23
2023-05-17T11:42:43.087Z,38.17
2023-05-17T11:43:43.114Z,38.19
2023-05-17T11:44:43.222Z,38.13
2023-05-17T11:45:43.190Z,38.12
2023-05-17T11:46:43.218Z,38.05
2023-05-17T11:47:43.335Z,37.95
2023-05-17T11:48:43.755Z,37.87
2023-05-17T11:49:43.255Z,37.81
2023-05-17T11:50:43.292Z,37.70
2023-05-17T11:51:43.329Z,37.62
2023-05-17T11:52:43.305Z,37.53
2023-05-17T11:53:43.303Z,37.42
2023-05-17T11:54:43.326Z,37.35
2023-05-17T11:55:43.295Z,37.28
2023-05-17T11:56:43.942Z,37.23
2023-05-17T11:57:43.413Z,37.15
2023-05-17T11:58:43.429Z,37.11
2023-05-17T11:59:43.334Z,36.97
2023-05-17T12:00:43.351Z,36.92
2023-05-17T12:01:43.554Z,36.84
2023-05-17T12:02:43.383Z,36.76
2023-05-17T12:03:43.391Z,36.71
2023-05-17T12:04:43.398Z,36.62
2023-05-17T12:05:43.370Z,36.58
2023-05-17T12:06:43.508Z,36.52
2023-05-17T12:07:43.395Z,36.47
2023-05-17T12:08:43.390Z,36.39
2023-05-17T12:09:43.390Z,36.39
2023-05-17T12:10:43.385Z,36.30
2023-05-17T12:11:43.431Z,36.24
2023-05-17T12:12:43.470Z,36.14
2023-05-17T12:13:43.403Z,36.11
2023-05-17T12:14:43.481Z,36.10
2023-05-17T12:15:43.463Z,36.03
2023-05-17T12:16:43.400Z,35.99
2023-05-17T12:17:43.544Z,35.93
2023-05-17T12:18:43.610Z,35.86
2023-05-17T12:19:43.514Z,35.80
2023-05-17T12:20:43.402Z,35.78
2023-05-17T12:21:43.369Z,35.75
2023-05-17T12:22:43.375Z,35.72
2023-05-17T12:23:43.537Z,35.73
2023-05-17T12:24:43.614Z,35.66
2023-05-17T12:25:43.379Z,35.61
2023-05-17T12:26:43.368Z,35.58
2023-05-17T12:27:43.403Z,35.52
2023-05-17T12:28:43.373Z,35.49
2023-05-17T12:29:43.362Z,35.44
2023-05-17T12:30:43.504Z,35.44
2023-05-17T12:31:43.364Z,35.40
2023-05-17T12:32:43.412Z,35.38
2023-05-17T12:33:43.532Z,35.35
2023-05-17T12:34:43.352Z,35.33
2023-05-17T12:35:43.338Z,35.28
2023-05-17T12:36:43.342Z,35.27
2023-05-17T12:37:43.342Z,35.19
2023-05-17T12:38:43.344Z,35.16
2023-05-17T12:39:43.325Z,35.11
2023-05-17T12:40:43.527Z,35.08
2023-05-17T12:41:43.344Z,35.06
2023-05-17T12:42:43.333Z,35.03
2023-05-17T12:43:43.334Z,35.02
2023-05-17T12:44:43.346Z,35.00
2023-05-17T12:45:43.341Z,34.98
2023-05-17T12:46:43.602Z,34.96
2023-05-17T12:47:43.395Z,34.91
2023-05-17T12:48:43.428Z,34.91
2023-05-17T12:49:43.324Z,34.87
2023-05-17T12:50:43.345Z,34.83
2023-05-17T12:51:43.396Z,34.82
2023-05-17T12:52:43.329Z,34.80
2023-05-17T12:53:43.339Z,34.75